Time;durP1;ratioP1;P1;durP2;ratioP2;P2;SDS_P1;SDS_P2;PMS_P1;PMS_P2;Temp;Humidity;BMP_temperature;BMP_pressure;BME280_temperature;BME280_humidity;BME280_pressure;Samples;Min_cycle;Max_cycle;Signal;HPM_P1;HPM_P2
2023/09/30 00:02:41;;;;;;;16.10;11.70;;;;;;;15.16;73.85;99096.02;225582;1280;139014;-74
2023/09/30 00:07:43;;;;;;;17.10;12.20;;;;;;;15.20;73.76;99095.48;225637;1278;138988;-73
2023/09/30 00:12:45;;;;;;;13.50;11.20;;;;;;;15.21;73.68;99091.44;225678;1278;138949;-73
2023/09/30 00:17:47;;;;;;;12.40;9.90;;;;;;;15.22;73.83;99089.34;225641;1279;138449;-73
2023/09/30 00:22:49;;;;;;;17.30;10.60;;;;;;;15.23;73.64;99088.69;225691;1279;139617;-74
2023/09/30 00:27:51;;;;;;;12.10;9.80;;;;;;;15.23;73.68;99084.71;225630;1281;139365;-73
2023/09/30 00:32:53;;;;;;;11.60;9.20;;;;;;;15.23;73.55;99077.80;225673;1280;24201;-73
2023/09/30 00:37:55;;;;;;;13.00;9.40;;;;;;;15.23;73.66;99074.60;225736;1281;138426;-74
2023/09/30 00:42:58;;;;;;;14.00;9.00;;;;;;;15.23;73.76;99073.95;225694;1274;139406;-73
2023/09/30 00:48:01;;;;;;;14.00;9.70;;;;;;;15.24;73.67;99075.05;225633;1281;138729;-73
2023/09/30 00:53:04;;;;;;;13.10;9.70;;;;;;;15.26;73.58;99070.73;225694;1278;138760;-74
2023/09/30 00:58:07;;;;;;;14.70;9.40;;;;;;;15.29;73.75;99069.33;225418;1281;138709;-73
2023/09/30 01:03:10;;;;;;;13.20;8.50;;;;;;;15.31;73.34;99071.15;225618;1277;25378;-73
2023/09/30 01:08:13;;;;;;;11.20;8.90;;;;;;;15.36;73.42;99072.87;225732;1281;138404;-73
2023/09/30 01:13:15;;;;;;;12.90;9.70;;;;;;;15.39;73.28;99073.72;225774;1281;138765;-73
2023/09/30 01:18:17;;;;;;;11.10;8.40;;;;;;;15.44;73.41;99075.40;225708;1275;138852;-73
2023/09/30 01:23:19;;;;;;;11.80;8.30;;;;;;;15.47;73.21;99079.04;225703;1279;139043;-73
2023/09/30 01:28:21;;;;;;;13.30;8.30;;;;;;;15.51;73.20;99086.67;225667;1280;138817;-73
2023/09/30 01:33:23;;;;;;;11.20;9.20;;;;;;;15.54;73.33;99087.51;225793;1280;22546;-73
2023/09/30 01:38:26;;;;;;;10.50;8.70;;;;;;;15.56;72.98;99085.64;225580;1281;139925;-73
2023/09/30 01:43:28;;;;;;;11.10;8.70;;;;;;;15.57;73.09;99084.61;225428;1275;201487;-72
2023/09/30 01:48:30;;;;;;;14.00;9.20;;;;;;;15.59;73.25;99079.70;225677;1281;138892;-72
2023/09/30 01:53:33;;;;;;;10.90;8.10;;;;;;;15.61;73.44;99073.42;225647;1275;138963;-72
2023/09/30 01:58:35;;;;;;;11.80;8.70;;;;;;;15.62;73.61;99068.30;225569;1278;140198;-73
2023/09/30 02:03:37;;;;;;;12.10;7.90;;;;;;;15.62;73.86;99065.46;225810;1279;22555;-72
2023/09/30 02:08:39;;;;;;;10.80;8.40;;;;;;;15.63;73.92;99061.45;225670;1281;138820;-73
2023/09/30 02:13:42;;;;;;;10.90;8.10;;;;;;;15.63;73.97;99069.56;225714;1278;138454;-72
2023/09/30 02:18:44;;;;;;;14.70;8.10;;;;;;;15.66;73.96;99075.24;225568;1273;138725;-73
2023/09/30 02:23:48;;;;;;;11.20;8.50;;;;;;;15.68;73.95;99075.11;225566;1276;139501;-72
2023/09/30 02:28:50;;;;;;;9.10;8.20;;;;;;;15.70;73.96;99075.93;225664;1278;138755;-74
2023/09/30 02:33:52;;;;;;;11.20;8.90;;;;;;;15.70;74.04;99077.48;225616;1278;139122;-72
2023/09/30 02:38:54;;;;;;;10.30;8.50;;;;;;;15.69;74.05;99071.38;225846;1279;22544;-74
2023/09/30 02:43:56;;;;;;;13.40;8.90;;;;;;;15.69;74.32;99073.77;225657;1278;138426;-72
2023/09/30 02:49:01;;;;;;;12.80;8.40;;;;;;;15.67;74.33;99085.36;225675;1277;138760;-72
2023/09/30 02:54:03;;;;;;;10.10;7.70;;;;;;;15.66;74.38;99082.22;225559;1281;138855;-74
2023/09/30 02:59:07;;;;;;;12.20;8.50;;;;;;;15.68;74.48;99078.11;225680;1281;138887;-72
2023/09/30 03:04:09;;;;;;;9.00;7.70;;;;;;;15.69;74.45;99072.17;225565;1277;138520;-73
2023/09/30 03:09:14;;;;;;;11.80;7.90;;;;;;;15.68;74.94;99077.25;225783;1280;25397;-73
2023/09/30 03:14:17;;;;;;;10.30;8.20;;;;;;;15.67;74.73;99077.70;225647;1278;138360;-73
2023/09/30 03:19:20;;;;;;;12.90;8.80;;;;;;;15.69;74.97;99076.80;225563;1278;138407;-73
2023/09/30 03:24:22;;;;;;;12.20;8.30;;;;;;;15.71;75.08;99076.99;225664;1280;138866;-74
2023/09/30 03:29:24;;;;;;;10.20;8.40;;;;;;;15.73;75.07;99082.77;225551;1279;139132;-73
2023/09/30 03:34:26;;;;;;;10.40;8.90;;;;;;;15.74;75.21;99084.58;225641;1280;138625;-73
2023/09/30 03:39:28;;;;;;;10.30;8.20;;;;;;;15.74;75.28;99086.30;225747;1281;22687;-72
2023/09/30 03:44:30;;;;;;;9.60;8.60;;;;;;;15.71;75.59;99084.95;225665;1280;138558;-72
2023/09/30 03:49:32;;;;;;;9.50;8.10;;;;;;;15.68;75.67;99089.13;225614;1281;138244;-73
2023/09/30 03:54:34;;;;;;;8.90;7.90;;;;;;;15.65;76.15;99097.34;225608;1278;138581;-73
2023/09/30 03:59:36;;;;;;;8.80;7.70;;;;;;;15.63;76.13;99093.54;225699;1280;138446;-74
2023/09/30 04:04:38;;;;;;;8.80;8.00;;;;;;;15.59;76.38;99086.09;225681;1278;139040;-72
2023/09/30 04:09:39;;;;;;;8.70;7.80;;;;;;;15.55;76.38;99087.89;225779;1278;25269;-72
2023/09/30 04:14:42;;;;;;;8.80;7.70;;;;;;;15.53;77.03;99096.63;225655;1274;138624;-72
2023/09/30 04:19:44;;;;;;;11.30;8.10;;;;;;;15.54;76.81;99097.78;225668;1279;138775;-72
2023/09/30 04:24:45;;;;;;;10.70;7.90;;;;;;;15.53;77.45;99098.85;225643;1275;138582;-72
2023/09/30 04:29:49;;;;;;;10.20;7.90;;;;;;;15.50;77.37;99105.45;225595;1275;138811;-73
2023/09/30 04:34:51;;;;;;;9.00;7.90;;;;;;;15.47;77.85;99108.73;225632;1280;138718;-73
2023/09/30 04:39:53;;;;;;;11.20;7.90;;;;;;;15.46;77.81;99109.11;225564;1278;138633;-72
2023/09/30 04:44:55;;;;;;;11.60;8.30;;;;;;;15.46;77.86;99107.88;225722;1274;22567;-74
2023/09/30 04:49:58;;;;;;;9.70;7.90;;;;;;;15.46;77.94;99110.58;225600;1281;138454;-74
2023/09/30 04:55:01;;;;;;;11.70;8.70;;;;;;;15.46;78.18;99122.54;225567;1281;138675;-72
2023/09/30 05:00:10;;;;;;;9.90;8.50;;;;;;;15.48;78.28;99134.14;225501;1278;138751;-73
2023/09/30 05:05:14;;;;;;;9.10;8.20;;;;;;;15.50;78.60;99138.76;225537;1281;139423;-72
2023/09/30 05:10:17;;;;;;;10.40;8.40;;;;;;;15.52;78.44;99143.63;225550;1279;138795;-71
2023/09/30 05:15:19;;;;;;;10.50;7.60;;;;;;;15.55;78.45;99147.05;225708;1278;22541;-73
2023/09/30 05:20:22;;;;;;;8.80;7.70;;;;;;;15.57;78.35;99153.86;225579;1281;138351;-73
2023/09/30 05:25:26;;;;;;;8.60;7.80;;;;;;;15.61;78.56;99160.45;225621;1279;139163;-73
2023/09/30 05:30:28;;;;;;;8.60;7.60;;;;;;;15.64;78.63;99171.89;225473;1281;138753;-72
2023/09/30 05:35:32;;;;;;;9.40;8.20;;;;;;;15.69;78.77;99183.61;225587;1278;138466;-73
2023/09/30 05:40:34;;;;;;;8.90;7.60;;;;;;;15.76;78.77;99188.80;225591;1275;139121;-73
2023/09/30 05:45:36;;;;;;;10.00;8.60;;;;;;;15.82;78.78;99191.83;225648;1280;22547;-73
2023/09/30 05:50:38;;;;;;;9.50;8.40;;;;;;;15.86;78.77;99198.07;225464;1281;138242;-73
2023/09/30 05:55:45;;;;;;;11.20;8.40;;;;;;;15.90;78.94;99213.14;225506;1281;139025;-73
2023/09/30 06:00:48;;;;;;;11.70;9.10;;;;;;;15.93;78.79;99217.23;225607;1278;138836;-73
2023/09/30 06:05:50;;;;;;;12.10;9.20;;;;;;;16.00;78.88;99219.92;225564;1278;138581;-73
2023/09/30 06:10:54;;;;;;;11.30;8.90;;;;;;;16.06;78.80;99219.59;225502;1281;140271;-73
2023/09/30 06:15:56;;;;;;;9.00;8.10;;;;;;;16.09;78.87;99223.31;225519;1279;138603;-73
2023/09/30 06:20:58;;;;;;;11.00;8.70;;;;;;;16.12;78.82;99224.98;225684;1278;22551;-73
2023/09/30 06:26:02;;;;;;;10.30;9.00;;;;;;;16.15;78.90;99236.05;225552;1278;138793;-72
2023/09/30 06:31:05;;;;;;;11.30;8.80;;;;;;;16.18;78.95;99243.28;225619;1278;139472;-72
2023/09/30 06:36:08;;;;;;;10.80;9.00;;;;;;;16.21;79.03;99251.13;225473;1278;139118;-73
2023/09/30 06:41:16;;;;;;;11.00;8.60;;;;;;;16.26;78.91;99254.73;225522;1281;138621;-73
2023/09/30 06:46:18;;;;;;;10.90;8.70;;;;;;;16.31;79.11;99263.36;225405;1274;139679;-73
2023/09/30 06:51:20;;;;;;;10.00;8.90;;;;;;;16.39;79.35;99257.20;225395;1278;22660;-74
2023/09/30 06:56:22;;;;;;;10.80;9.50;;;;;;;16.48;79.28;99254.69;225333;1278;138728;-73
2023/09/30 07:01:25;;;;;;;10.40;9.00;;;;;;;16.56;79.30;99261.05;225366;1276;138645;-73
2023/09/30 07:06:27;;;;;;;11.90;10.50;;;;;;;16.63;79.58;99271.58;225122;1260;138744;-74
2023/09/30 07:11:32;;;;;;;11.60;10.40;;;;;;;16.67;79.68;99279.97;225207;1275;138884;-73
2023/09/30 07:16:35;;;;;;;11.50;9.90;;;;;;;16.71;79.61;99280.33;225360;1262;138964;-73
2023/09/30 07:21:37;;;;;;;11.40;10.30;;;;;;;16.74;79.82;99287.48;225541;1278;22557;-73
2023/09/30 07:26:39;;;;;;;12.50;11.20;;;;;;;16.80;80.21;99293.75;225247;1266;138771;-72
2023/09/30 07:31:41;;;;;;;14.20;10.90;;;;;;;16.83;80.63;99295.47;225212;1265;138978;-72
2023/09/30 07:36:43;;;;;;;13.60;11.60;;;;;;;16.87;80.73;99290.85;225243;1272;139171;-72
2023/09/30 07:41:45;;;;;;;13.10;11.70;;;;;;;16.87;80.85;99294.88;225350;1278;138916;-73
2023/09/30 07:46:47;;;;;;;13.90;12.50;;;;;;;16.86;81.01;99298.12;225317;1278;139061;-71
2023/09/30 07:51:49;;;;;;;15.40;13.10;;;;;;;16.84;81.41;99305.93;225202;1265;139837;-71
2023/09/30 07:56:51;;;;;;;14.90;12.80;;;;;;;16.81;81.61;99310.05;225455;1275;24422;-72
2023/09/30 08:01:53;;;;;;;17.60;13.30;;;;;;;16.82;82.11;99314.32;225120;1262;138616;-71
2023/09/30 08:06:55;;;;;;;16.10;14.30;;;;;;;16.84;82.55;99320.59;225074;1265;138841;-72
2023/09/30 08:11:58;;;;;;;14.90;13.40;;;;;;;16.85;82.45;99321.64;225029;1271;139428;-72
2023/09/30 08:17:00;;;;;;;15.00;13.40;;;;;;;16.84;82.79;99327.94;225086;1270;138756;-72
2023/09/30 08:22:02;;;;;;;24.50;19.10;;;;;;;16.80;82.90;99330.80;225120;1258;139540;-72
2023/09/30 08:27:05;;;;;;;14.60;13.10;;;;;;;16.78;83.24;99330.51;225290;1278;22570;-74
2023/09/30 08:32:07;;;;;;;16.90;14.90;;;;;;;16.77;83.34;99328.44;225152;1278;138831;-73
2023/09/30 08:37:10;;;;;;;16.60;13.90;;;;;;;16.76;83.82;99332.77;225005;1262;138596;-72
2023/09/30 08:42:12;;;;;;;15.30;13.80;;;;;;;16.74;83.87;99331.09;225230;1273;139520;-73
2023/09/30 08:47:14;;;;;;;18.30;16.30;;;;;;;16.78;84.41;99334.18;225138;1281;139597;-73
2023/09/30 08:52:16;;;;;;;17.80;16.00;;;;;;;16.83;84.66;99336.98;225125;1263;138833;-73
2023/09/30 08:57:20;;;;;;;16.10;14.50;;;;;;;16.89;84.78;99338.64;225309;1268;22640;-72
2023/09/30 09:02:22;;;;;;;16.00;14.40;;;;;;;16.96;84.82;99340.14;225130;1276;137855;-73
2023/09/30 09:07:24;;;;;;;14.50;13.10;;;;;;;17.03;85.09;99344.38;225133;1276;138789;-72
2023/09/30 09:12:27;;;;;;;15.40;13.80;;;;;;;17.07;85.38;99352.64;225158;1265;138924;-73
2023/09/30 09:17:43;;;;;;;15.00;13.50;;;;;;;17.08;85.58;99353.65;225121;1278;138748;-72
2023/09/30 09:22:45;;;;;;;13.70;12.40;;;;;;;17.10;85.61;99355.69;225250;1262;139240;-73
2023/09/30 09:27:47;;;;;;;12.20;11.10;;;;;;;17.11;85.88;99360.05;224938;1263;138915;-74
2023/09/30 09:33:00;;;;;;;12.60;11.40;;;;;;;17.11;85.85;99360.33;225314;1262;22673;-74
2023/09/30 09:38:07;;;;;;;12.50;11.20;;;;;;;17.16;86.01;99359.20;225141;1260;138416;-74
2023/09/30 09:43:09;;;;;;;13.40;12.00;;;;;;;17.22;86.20;99355.04;224999;1276;138609;-74
2023/09/30 09:48:12;;;;;;;11.70;10.50;;;;;;;17.32;86.34;99359.83;225106;1271;139845;-74
2023/09/30 09:53:16;;;;;;;11.00;9.80;;;;;;;17.41;86.29;99363.27;224993;1260;138758;-74
2023/09/30 09:58:20;;;;;;;11.40;10.30;;;;;;;17.50;86.18;99363.05;225046;1267;138623;-73
2023/09/30 10:03:22;;;;;;;10.20;8.80;;;;;;;17.54;86.28;99369.13;225132;1278;22676;-73
2023/09/30 10:08:33;;;;;;;11.00;10.00;;;;;;;17.50;86.27;99374.76;224996;1258;138584;-74
2023/09/30 10:13:51;;;;;;;10.50;8.40;;;;;;;17.47;86.29;99378.90;224941;1270;138665;-74
2023/09/30 10:19:26;;;;;;;7.50;6.10;;;;;;;17.41;86.51;99383.99;225019;1262;138538;-73
2023/09/30 10:24:29;;;;;;;7.60;5.60;;;;;;;17.29;85.77;99388.73;225038;1275;138566;-73
2023/09/30 10:29:41;;;;;;;7.90;6.00;;;;;;;17.16;85.41;99392.77;225009;1270;138499;-73
2023/09/30 10:34:48;;;;;;;6.80;5.40;;;;;;;17.13;85.42;99400.05;225101;1278;138579;-74
2023/09/30 10:39:56;;;;;;;6.30;5.20;;;;;;;17.01;85.15;99406.64;225094;1272;138581;-73
2023/09/30 10:44:58;;;;;;;10.40;6.10;;;;;;;16.80;85.31;99412.88;225177;1272;22533;-74
2023/09/30 10:50:00;;;;;;;9.80;5.50;;;;;;;16.54;85.27;99416.52;225030;1274;138406;-72
2023/09/30 10:55:04;;;;;;;6.90;5.40;;;;;;;16.31;86.00;99429.73;225019;1274;138393;-73
2023/09/30 11:00:16;;;;;;;7.90;5.10;;;;;;;16.14;86.60;99433.77;224950;1278;139366;-73
2023/09/30 11:05:20;;;;;;;7.00;5.10;;;;;;;16.02;86.50;99434.98;224854;1270;138610;-74
2023/09/30 11:10:36;;;;;;;7.20;5.40;;;;;;;15.93;86.69;99437.98;224824;1281;138437;-74
2023/09/30 11:15:38;;;;;;;9.30;6.80;;;;;;;15.88;86.66;99435.44;225217;1279;22775;-74
2023/09/30 11:20:41;;;;;;;7.80;6.40;;;;;;;15.85;86.51;99440.38;225597;1278;138594;-74
2023/09/30 11:25:44;;;;;;;8.70;7.10;;;;;;;15.81;86.59;99439.34;225405;1281;138466;-74
2023/09/30 11:30:54;;;;;;;9.30;7.00;;;;;;;15.78;86.75;99456.48;225398;1281;137887;-74
2023/09/30 11:36:01;;;;;;;9.20;7.30;;;;;;;15.71;86.56;99455.13;225584;1279;138676;-74
2023/09/30 11:41:06;;;;;;;9.80;7.90;;;;;;;15.64;86.62;99460.54;225537;1278;138571;-74
2023/09/30 11:46:11;;;;;;;9.30;7.80;;;;;;;15.60;86.84;99459.88;225551;1279;138594;-74
2023/09/30 11:51:13;;;;;;;10.80;7.80;;;;;;;15.57;86.92;99460.41;225768;1278;22592;-75
2023/09/30 11:56:15;;;;;;;10.80;7.40;;;;;;;15.59;86.99;99448.96;225602;1281;138377;-74
2023/09/30 12:01:17;;;;;;;8.90;7.00;;;;;;;15.64;87.05;99440.08;225650;1281;139038;-74
2023/09/30 12:06:19;;;;;;;14.40;7.70;;;;;;;15.67;87.14;99436.85;225519;1279;138423;-75
2023/09/30 12:11:23;;;;;;;12.20;7.30;;;;;;;15.71;86.97;99444.31;225564;1281;138732;-75
2023/09/30 12:16:25;;;;;;;11.00;7.50;;;;;;;15.72;87.00;99448.05;225539;1279;138896;-74
2023/09/30 12:21:28;;;;;;;15.90;8.00;;;;;;;15.71;87.10;99452.96;225564;1281;22573;-75
2023/09/30 12:26:31;;;;;;;13.30;8.70;;;;;;;15.72;86.69;99458.70;225534;1281;138328;-75
2023/09/30 12:31:33;;;;;;;11.20;9.20;;;;;;;15.80;86.95;99456.48;225630;1273;138979;-74
2023/09/30 12:36:50;;;;;;;15.10;8.70;;;;;;;16.10;87.12;99454.13;225652;1281;138741;-74
2023/09/30 12:41:52;;;;;;;11.70;7.70;;;;;;;16.45;86.61;99461.61;225445;1281;139512;-74
2023/09/30 12:46:54;;;;;;;11.40;8.00;;;;;;;16.80;86.07;99457.84;225395;1281;138542;-74
2023/09/30 12:51:58;;;;;;;9.40;7.10;;;;;;;17.18;85.30;99464.15;225494;1281;138605;-75
2023/09/30 12:57:00;;;;;;;8.70;6.10;;;;;;;17.49;84.81;99463.35;225549;1278;22544;-74
2023/09/30 13:02:05;;;;;;;7.30;5.20;;;;;;;17.63;83.48;99461.75;225671;1279;138213;-75
2023/09/30 13:07:07;;;;;;;8.90;5.90;;;;;;;17.61;82.79;99462.29;225471;1277;138491;-75
2023/09/30 13:12:09;;;;;;;8.80;5.20;;;;;;;17.62;82.56;99464.13;225632;1279;138672;-75
2023/09/30 13:17:14;;;;;;;5.40;4.80;;;;;;;17.61;82.38;99462.12;225648;1281;138418;-76
2023/09/30 13:22:16;;;;;;;6.80;4.80;;;;;;;17.61;82.07;99456.41;225472;1277;138020;-75
2023/09/30 13:27:20;;;;;;;7.60;4.70;;;;;;;17.70;82.03;99459.53;225726;1280;22547;-74
2023/09/30 13:32:22;;;;;;;5.50;3.10;;;;;;;17.83;81.56;99463.50;225436;1277;138245;-73
2023/09/30 13:37:29;;;;;;;14.80;4.20;;;;;;;17.94;80.23;99460.95;225697;1278;138318;-74
2023/09/30 13:42:31;;;;;;;6.70;3.10;;;;;;;18.07;79.59;99460.42;225441;1281;141015;-74
2023/09/30 13:47:34;;;;;;;6.40;3.20;;;;;;;18.17;79.15;99459.71;225492;1281;138412;-75
2023/09/30 13:52:36;;;;;;;4.20;2.70;;;;;;;18.22;78.03;99463.21;225561;1280;138392;-74
2023/09/30 13:57:38;;;;;;;11.00;2.90;;;;;;;18.17;76.47;99459.98;225655;1279;22567;-75
2023/09/30 14:02:40;;;;;;;5.50;3.10;;;;;;;18.07;75.24;99465.27;225655;1274;138431;-74
2023/09/30 14:07:43;;;;;;;6.10;2.90;;;;;;;17.96;75.16;99470.45;225641;1270;138419;-72
2023/09/30 14:12:45;;;;;;;4.10;2.50;;;;;;;17.89;74.78;99467.11;225551;1281;138492;-74
2023/09/30 14:17:47;;;;;;;8.20;2.90;;;;;;;17.77;74.19;99477.17;225426;1281;138622;-74
2023/09/30 14:22:49;;;;;;;6.40;2.80;;;;;;;17.70;74.04;99476.39;225547;1281;138567;-74
2023/09/30 14:27:51;;;;;;;5.60;2.60;;;;;;;17.63;73.50;99483.79;225523;1280;139089;-74
2023/09/30 14:32:54;;;;;;;5.40;2.80;;;;;;;17.52;73.78;99469.82;225798;1280;22581;-73
2023/09/30 14:37:56;;;;;;;6.10;2.70;;;;;;;17.40;73.89;99467.05;225561;1281;138453;-73
2023/09/30 14:42:59;;;;;;;9.20;2.80;;;;;;;17.32;74.09;99468.93;225536;1281;139420;-74
2023/09/30 14:48:01;;;;;;;6.70;2.30;;;;;;;17.23;73.83;99476.52;225707;1280;139351;-73
2023/09/30 14:53:03;;;;;;;6.90;2.30;;;;;;;17.14;73.09;99472.73;225488;1281;138721;-74
2023/09/30 14:58:05;;;;;;;4.90;2.30;;;;;;;17.03;72.84;99482.22;225664;1275;139369;-74
2023/09/30 15:03:07;;;;;;;5.70;2.30;;;;;;;16.93;72.98;99478.20;225575;1281;25309;-74
2023/09/30 15:08:10;;;;;;;5.00;1.80;;;;;;;16.84;72.87;99485.05;225548;1281;138746;-74
2023/09/30 15:13:12;;;;;;;6.60;2.70;;;;;;;16.76;73.06;99484.96;225559;1281;138700;-74
2023/09/30 15:18:14;;;;;;;6.60;2.10;;;;;;;16.68;73.36;99486.33;225680;1279;138406;-74
2023/09/30 15:23:16;;;;;;;7.10;2.60;;;;;;;16.62;73.42;99496.64;225454;1278;139109;-74
2023/09/30 15:28:18;;;;;;;6.90;2.40;;;;;;;16.55;73.72;99499.88;225505;1279;138460;-73
2023/09/30 15:33:20;;;;;;;4.70;2.50;;;;;;;16.47;73.94;99506.50;225790;1281;22550;-73
2023/09/30 15:38:22;;;;;;;4.90;2.00;;;;;;;16.37;74.18;99509.05;225508;1277;138243;-73
2023/09/30 15:43:24;;;;;;;3.90;2.00;;;;;;;16.26;74.21;99508.42;225449;1277;138234;-74
2023/09/30 15:48:27;;;;;;;4.20;2.10;;;;;;;16.14;74.25;99517.91;225532;1281;138567;-74
2023/09/30 15:53:33;;;;;;;5.90;2.00;;;;;;;16.05;74.52;99518.77;225498;1280;138642;-74
2023/09/30 15:58:35;;;;;;;4.60;2.00;;;;;;;15.93;74.65;99515.69;225521;1281;138579;-74
2023/09/30 16:03:37;;;;;;;5.80;2.40;;;;;;;15.84;75.08;99524.79;225761;1281;22548;-73
2023/09/30 16:08:40;;;;;;;8.30;2.70;;;;;;;15.73;74.83;99530.63;225539;1281;137921;-74
2023/09/30 16:13:43;;;;;;;7.50;2.60;;;;;;;15.62;75.04;99538.39;225560;1281;138242;-73
2023/09/30 16:18:45;;;;;;;5.70;3.00;;;;;;;15.50;75.51;99549.11;225724;1279;138607;-73
2023/09/30 16:23:47;;;;;;;6.20;2.60;;;;;;;15.40;75.23;99553.39;225546;1280;138487;-75
2023/09/30 16:28:48;;;;;;;9.80;3.20;;;;;;;15.30;75.07;99559.58;225447;1280;138721;-76
2023/09/30 16:33:50;;;;;;;8.50;3.00;;;;;;;15.18;75.61;99567.06;225708;1276;138764;-74
2023/09/30 16:38:52;;;;;;;5.70;3.20;;;;;;;15.06;75.52;99573.39;225545;1281;22602;-74
2023/09/30 16:43:54;;;;;;;6.10;3.00;;;;;;;14.90;75.53;99582.16;225530;1281;138426;-74
2023/09/30 16:48:56;;;;;;;7.80;3.80;;;;;;;14.72;76.01;99587.98;225528;1281;138566;-74
2023/09/30 16:53:58;;;;;;;6.90;3.10;;;;;;;14.56;75.88;99595.60;225687;1279;138365;-73
2023/09/30 16:59:01;;;;;;;10.70;3.40;;;;;;;14.40;76.04;99605.02;225537;1281;138609;-73
2023/09/30 17:04:04;;;;;;;8.00;3.50;;;;;;;14.23;76.33;99606.83;225647;1279;138543;-74
2023/09/30 17:09:06;;;;;;;9.80;3.80;;;;;;;14.09;76.66;99615.59;225656;1279;22546;-75
2023/09/30 17:14:08;;;;;;;8.70;3.70;;;;;;;13.96;76.79;99614.39;225653;1259;138454;-73
2023/09/30 17:19:10;;;;;;;7.90;3.10;;;;;;;13.87;77.19;99612.38;225569;1279;138522;-74
2023/09/30 17:24:12;;;;;;;8.40;4.00;;;;;;;13.80;77.09;99605.23;225535;1279;139561;-75
2023/09/30 17:29:14;;;;;;;8.50;4.30;;;;;;;13.78;77.58;99602.39;225613;1279;138468;-75
2023/09/30 17:34:16;;;;;;;9.90;5.00;;;;;;;13.75;77.50;99609.23;225494;1281;138388;-74
2023/09/30 17:39:18;;;;;;;8.20;4.40;;;;;;;13.72;77.60;99620.22;225819;1273;22572;-75
2023/09/30 17:44:21;;;;;;;10.70;5.20;;;;;;;13.66;77.68;99621.05;225456;1281;139052;-74
2023/09/30 17:49:23;;;;;;;13.00;4.90;;;;;;;13.57;77.94;99622.42;225517;1279;138630;-73
2023/09/30 17:54:26;;;;;;;14.50;5.30;;;;;;;13.43;78.20;99631.20;225519;1279;138746;-74
2023/09/30 17:59:31;;;;;;;9.90;4.70;;;;;;;13.29;78.47;99631.27;225571;1280;139205;-74
2023/09/30 18:04:33;;;;;;;8.20;3.90;;;;;;;13.17;78.77;99635.98;225549;1280;139047;-73
2023/09/30 18:09:36;;;;;;;8.90;4.50;;;;;;;13.03;78.93;99627.09;225652;1277;23158;-74
2023/09/30 18:14:38;;;;;;;9.00;4.70;;;;;;;12.90;79.12;99630.05;225708;1280;137936;-74
2023/09/30 18:19:40;;;;;;;8.40;4.70;;;;;;;12.79;79.26;99637.66;225720;1258;138255;-73
2023/09/30 18:24:42;;;;;;;8.50;4.60;;;;;;;12.67;79.52;99641.71;225462;1278;138404;-73
2023/09/30 18:29:44;;;;;;;12.10;5.30;;;;;;;12.55;79.72;99650.02;225684;1281;138536;-74
2023/09/30 18:34:46;;;;;;;12.20;6.60;;;;;;;12.41;80.05;99643.14;225508;1277;138574;-73
2023/09/30 18:39:50;;;;;;;10.50;6.10;;;;;;;12.26;80.28;99641.41;225542;1281;138857;-73
2023/09/30 18:44:52;;;;;;;11.10;5.50;;;;;;;12.09;80.61;99641.04;225618;1280;25256;-73
2023/09/30 18:49:54;;;;;;;12.40;5.50;;;;;;;11.93;80.88;99644.98;225677;1275;138891;-73
2023/09/30 18:54:56;;;;;;;9.90;5.50;;;;;;;11.81;81.42;99647.54;225699;1280;138892;-73
2023/09/30 18:59:58;;;;;;;9.50;5.60;;;;;;;11.68;81.76;99652.45;225678;1278;138561;-73
2023/09/30 19:05:00;;;;;;;9.20;5.70;;;;;;;11.56;81.80;99663.30;225460;1281;138398;-73
2023/09/30 19:10:02;;;;;;;12.40;4.90;;;;;;;11.46;82.29;99666.08;225590;1280;138488;-73
2023/09/30 19:15:05;;;;;;;8.60;4.80;;;;;;;11.37;82.34;99672.64;225805;1275;22554;-74
2023/09/30 19:20:08;;;;;;;7.20;4.60;;;;;;;11.27;82.79;99668.53;225612;1278;139012;-74
2023/09/30 19:25:10;;;;;;;11.90;5.00;;;;;;;11.19;82.98;99666.67;225619;1277;138261;-74
2023/09/30 19:30:13;;;;;;;12.10;4.80;;;;;;;11.11;83.14;99673.38;225506;1277;138751;-73
2023/09/30 19:35:15;;;;;;;10.20;4.70;;;;;;;11.03;83.38;99671.44;225655;1279;138715;-73
2023/09/30 19:40:17;;;;;;;10.80;5.60;;;;;;;10.96;83.59;99671.33;225547;1277;138751;-73
2023/09/30 19:45:19;;;;;;;14.40;6.90;;;;;;;10.87;83.77;99676.36;225811;1275;22617;-74
2023/09/30 19:50:22;;;;;;;16.10;7.80;;;;;;;10.79;84.09;99673.51;225454;1281;138443;-74
2023/09/30 19:55:28;;;;;;;16.20;8.90;;;;;;;10.73;84.26;99676.70;225689;1279;138409;-74
2023/09/30 20:00:30;;;;;;;20.60;10.80;;;;;;;10.65;84.39;99678.45;225591;1276;139105;-73
2023/09/30 20:05:32;;;;;;;17.90;11.00;;;;;;;10.58;84.45;99679.63;225696;1281;139032;-74
2023/09/30 20:10:34;;;;;;;23.20;12.10;;;;;;;10.53;84.71;99683.06;225704;1278;138797;-74
2023/09/30 20:15:37;;;;;;;24.50;12.50;;;;;;;10.48;84.77;99672.57;225812;1278;22577;-74
2023/09/30 20:20:39;;;;;;;23.20;12.80;;;;;;;10.42;84.98;99670.88;225560;1277;138230;-74
2023/09/30 20:25:41;;;;;;;20.10;10.50;;;;;;;10.36;85.12;99674.52;225544;1276;138812;-73
2023/09/30 20:30:43;;;;;;;17.90;9.80;;;;;;;10.32;85.05;99677.11;225562;1279;139559;-74
2023/09/30 20:35:45;;;;;;;12.50;8.20;;;;;;;10.27;85.31;99679.90;225717;1281;139278;-73
2023/09/30 20:40:48;;;;;;;18.90;8.50;;;;;;;10.23;85.45;99681.70;225624;1280;138590;-73
2023/09/30 20:45:50;;;;;;;17.80;9.10;;;;;;;10.20;85.58;99684.17;225447;1281;139436;-73
2023/09/30 20:50:52;;;;;;;15.40;8.80;;;;;;;10.16;85.52;99684.33;225655;1280;22604;-73
2023/09/30 20:55:54;;;;;;;19.90;9.70;;;;;;;10.12;85.62;99686.89;225509;1281;138577;-74
2023/09/30 21:00:57;;;;;;;17.60;10.60;;;;;;;10.07;85.87;99691.35;225682;1281;138660;-74
2023/09/30 21:06:05;;;;;;;18.30;9.90;;;;;;;10.01;85.95;99696.58;225692;1278;138740;-74
2023/09/30 21:11:12;;;;;;;17.40;9.30;;;;;;;9.95;85.90;99692.25;225728;1281;138627;-74
2023/09/30 21:16:14;;;;;;;13.10;8.20;;;;;;;9.88;86.12;99689.77;225417;1281;139163;-74
2023/09/30 21:21:17;;;;;;;13.40;8.80;;;;;;;9.83;85.90;99693.89;225633;1281;22539;-74
2023/09/30 21:26:19;;;;;;;16.70;9.00;;;;;;;9.77;85.95;99694.67;225576;1280;138305;-75
2023/09/30 21:31:22;;;;;;;13.70;8.20;;;;;;;9.71;86.36;99688.45;225581;1280;138554;-74
2023/09/30 21:36:25;;;;;;;14.20;8.40;;;;;;;9.65;86.50;99689.05;225728;1275;138457;-74
2023/09/30 21:41:27;;;;;;;14.10;7.90;;;;;;;9.59;86.30;99679.73;225508;1279;139313;-75
2023/09/30 21:46:35;;;;;;;17.00;8.90;;;;;;;9.53;86.48;99689.56;225733;1281;138492;-75
2023/09/30 21:51:37;;;;;;;15.20;8.40;;;;;;;9.48;86.70;99684.15;225779;1275;25310;-73
2023/09/30 21:56:40;;;;;;;13.80;8.50;;;;;;;9.45;86.92;99682.74;225704;1275;138107;-74
2023/09/30 22:01:43;;;;;;;15.70;8.60;;;;;;;9.42;87.33;99693.75;225510;1280;138239;-74
2023/09/30 22:06:45;;;;;;;13.30;8.80;;;;;;;9.39;87.30;99696.89;225442;1281;138848;-74
2023/09/30 22:11:47;;;;;;;16.10;8.80;;;;;;;9.35;86.89;99701.02;225642;1278;138659;-74
2023/09/30 22:16:50;;;;;;;12.80;9.00;;;;;;;9.32;87.20;99711.34;225636;1280;138435;-74
2023/09/30 22:21:52;;;;;;;14.50;9.00;;;;;;;9.29;87.61;99714.77;225663;1280;139203;-73
2023/09/30 22:26:54;;;;;;;15.80;9.50;;;;;;;9.29;87.57;99712.31;225756;1280;23040;-73
2023/09/30 22:31:56;;;;;;;13.00;8.20;;;;;;;9.28;87.59;99713.48;225687;1279;138854;-74
2023/09/30 22:36:58;;;;;;;14.30;8.80;;;;;;;9.25;87.73;99717.82;225649;1281;138399;-74
2023/09/30 22:42:00;;;;;;;15.90;8.80;;;;;;;9.21;87.60;99715.59;225407;1281;138410;-74
2023/09/30 22:47:02;;;;;;;15.10;8.70;;;;;;;9.18;87.84;99714.20;225526;1277;138444;-74
2023/09/30 22:52:04;;;;;;;14.30;9.30;;;;;;;9.15;87.84;99715.76;225627;1281;139402;-74
2023/09/30 22:57:06;;;;;;;14.80;9.80;;;;;;;9.12;87.51;99712.17;225750;1268;22648;-74
2023/09/30 23:02:08;;;;;;;12.90;8.90;;;;;;;9.08;87.69;99718.27;225691;1278;138120;-73